createdAt,value
2022-11-01T00:02:22.256Z,5.30
2022-11-01T00:07:06.411Z,5.45
2022-11-01T00:11:52.044Z,5.15
2022-11-01T00:16:36.641Z,5.03
2022-11-01T00:25:47.092Z,4.97
2022-11-01T01:15:05.896Z,5.10
2022-11-01T01:30:12.996Z,4.97
2022-11-01T01:34:57.547Z,4.97
2022-11-01T01:39:41.681Z,4.88
2022-11-01T01:44:26.646Z,5.65
2022-11-01T01:49:11.431Z,5.50
2022-11-01T01:53:55.633Z,5.70
2022-11-01T01:58:41.027Z,5.22
2022-11-01T02:03:25.877Z,5.20
2022-11-01T02:08:11.847Z,5.30
2022-11-01T02:12:57.422Z,5.88
2022-11-01T02:17:42.786Z,7.22
2022-11-01T02:22:27.781Z,6.28
2022-11-01T02:52:49.209Z,5.45
2022-11-01T03:38:46.071Z,8.40
2022-11-01T03:43:32.414Z,8.73
2022-11-01T03:48:16.809Z,8.88
2022-11-01T03:53:02.236Z,8.23
2022-11-01T03:57:46.860Z,6.55
2022-11-01T04:02:31.802Z,6.25
2022-11-01T04:07:16.477Z,6.70
2022-11-01T04:12:02.012Z,6.47
2022-11-01T04:16:46.912Z,7.00
2022-11-01T04:21:31.952Z,6.72
2022-11-01T04:26:17.192Z,9.50
2022-11-01T04:48:46.449Z,12.25
2022-11-01T04:53:32.064Z,14.02
2022-11-01T04:58:16.980Z,13.10
2022-11-01T05:03:02.233Z,13.20
2022-11-01T05:07:47.059Z,14.18
2022-11-01T05:12:32.065Z,14.85
2022-11-01T05:17:17.059Z,13.02
2022-11-01T05:22:03.040Z,11.13
2022-11-01T05:26:49.190Z,13.32
2022-11-01T05:40:43.214Z,16.85
2022-11-01T05:45:27.771Z,16.83
2022-11-01T06:09:17.641Z,16.77
2022-11-01T06:14:01.560Z,16.92
2022-11-01T06:18:51.807Z,14.95
2022-11-01T06:23:37.120Z,16.42
2022-11-01T06:28:22.005Z,18.02
2022-11-01T06:42:12.045Z,14.27
2022-11-01T06:46:56.715Z,15.43
2022-11-01T06:51:40.803Z,16.52
2022-11-01T06:56:26.138Z,15.38
2022-11-01T07:01:10.945Z,17.25
2022-11-01T07:05:56.896Z,16.27
2022-11-01T07:10:41.871Z,16.23
2022-11-01T07:15:26.792Z,15.85
2022-11-01T07:20:10.795Z,16.48
2022-11-01T07:24:55.929Z,16.55
2022-11-01T07:29:40.649Z,17.63
2022-11-01T07:38:49.409Z,18.50
2022-11-01T07:43:33.892Z,17.70
2022-11-01T07:48:19.900Z,17.27
2022-11-01T07:53:04.892Z,17.60
2022-11-01T07:57:50.095Z,16.83
2022-11-01T08:02:35.124Z,16.73
2022-11-01T08:07:19.870Z,17.08
2022-11-01T08:16:36.703Z,17.05
2022-11-01T08:21:20.811Z,16.80
2022-11-01T08:30:30.811Z,18.85
2022-11-01T08:39:40.276Z,14.07
2022-11-01T08:44:09.668Z,12.60
2022-11-01T10:10:17.157Z,12.25
2022-11-01T10:15:02.243Z,11.95
2022-11-01T10:19:47.186Z,12.52
2022-11-01T10:24:32.089Z,13.38
2022-11-01T10:29:17.121Z,13.82
2022-11-01T10:34:02.263Z,13.23
2022-11-01T10:39:23.484Z,13.50
2022-11-01T11:19:06.072Z,18.33
2022-11-01T11:23:51.203Z,19.50
2022-11-01T11:28:36.175Z,17.98
2022-11-01T11:33:22.170Z,15.48
2022-11-01T11:38:07.426Z,17.92
2022-11-01T12:03:29.416Z,18.20
2022-11-01T12:08:13.971Z,15.63
2022-11-01T13:10:09.338Z,14.98
2022-11-01T13:14:55.460Z,13.60
2022-11-01T14:31:11.825Z,10.30
2022-11-01T15:32:19.272Z,7.93
2022-11-01T16:49:12.847Z,6.68
2022-11-01T16:53:57.011Z,6.30
2022-11-01T16:58:42.050Z,6.03
2022-11-01T17:03:28.273Z,5.65
2022-11-01T17:12:39.535Z,5.22
2022-11-01T17:54:33.201Z,10.60
2022-11-01T17:59:18.314Z,9.73
2022-11-01T18:51:04.838Z,11.40
2022-11-01T19:59:10.422Z,10.55
2022-11-01T20:20:43.947Z,6.40
2022-11-01T20:25:29.359Z,6.10
2022-11-01T20:30:10.546Z,6.03
2022-11-01T20:34:55.092Z,6.07
2022-11-01T20:57:28.479Z,9.18
2022-11-01T21:42:18.276Z,4.55
2022-11-01T21:56:13.519Z,5.05
2022-11-01T22:00:58.361Z,5.15
2022-11-01T22:05:43.459Z,5.20
2022-11-01T22:10:28.088Z,4.78
2022-11-01T22:15:12.152Z,4.72
2022-11-01T22:19:58.047Z,4.50
2022-11-01T22:24:43.248Z,4.28
2022-11-01T22:29:27.932Z,4.53
2022-11-01T22:34:12.147Z,4.68
2022-11-01T23:07:26.194Z,4.95
2022-11-01T23:12:10.544Z,4.88
2022-11-01T23:16:55.122Z,11.73
2022-11-01T23:30:48.594Z,5.40
2022-11-01T23:35:33.131Z,5.20
2022-11-01T23:40:17.398Z,5.00
2022-11-01T23:45:02.149Z,5.50
2022-11-01T23:59:43.190Z,5.32
